KAIT

Aitkin Municipal-Steve Kurtz Field Airport

Aitkin, Minnesota, USA
METAR KAIT 201955Z AUTO 36009KT 7SM SCT028 SCT035 23/16 A3001 RMK AO2
Observed Flight Rules
Aug-20 @ 19:55 UTC (35 minutes ago) Visual Flight Rules
Wind Visibility Clouds
360° at 9 knots 7 miles
  • Scattered at 2,800' AGL
  • Scattered at 3,500' AGL
Temperatures Readings
Current 23°C / 73°F
Dewpoint 16°C / 61°F
Humidity 65%
Altimeter 30.01" Hg
Pressure 1016 hPa
Elevation 367
METAR KAIT 201955Z AUTO 36009KT 7SM SCT028 SCT035 23/16 A3001 RMK AO2
Observed Flight Rules
Aug-20 @ 19:55 UTC
(35 minutes ago)
VFR
Wind Visibility
360° at 9 knots 7 miles
Clouds
  • Scattered at 2,800' AGL
  • Scattered at 3,500' AGL
Temperature Dewpoint
23°C / 73°F 16°C / 61°F
Humidity Altimeter Pressure
65% 30.01" Hg 1016 hPa